Time;durP1;ratioP1;P1;durP2;ratioP2;P2;SDS_P1;SDS_P2;PMS_P1;PMS_P2;Temp;Humidity;BMP_temperature;BMP_pressure;BME280_temperature;BME280_humidity;BME280_pressure;Samples;Min_cycle;Max_cycle;Signal;HPM_P1;HPM_P2
2021/12/01 00:00:30;;;;;;;10.13;6.67;;;;;;;2.00;71.12;92628.45;1694588;83;21009;-57
2021/12/01 00:02:57;;;;;;;10.75;7.70;;;;;;;1.98;71.12;92638.25;1687353;83;21367;-55
2021/12/01 00:05:27;;;;;;;12.30;8.80;;;;;;;1.96;71.06;92632.52;1690511;83;21132;-57
2021/12/01 00:07:55;;;;;;;14.50;10.13;;;;;;;1.97;71.19;92634.03;1699715;83;21024;-55
2021/12/01 00:10:25;;;;;;;15.75;10.70;;;;;;;2.02;71.24;92634.80;1702770;83;21436;-56
2021/12/01 00:12:53;;;;;;;13.15;9.90;;;;;;;2.03;71.06;92634.95;1694523;83;20948;-56
2021/12/01 00:15:22;;;;;;;9.30;7.28;;;;;;;2.01;71.05;92634.64;1682823;83;20989;-56
2021/12/01 00:17:50;;;;;;;9.03;7.15;;;;;;;2.03;71.05;92637.08;1670947;83;21071;-56
2021/12/01 00:20:19;;;;;;;14.58;8.58;;;;;;;2.05;71.01;92633.32;1701302;83;21004;-56
2021/12/01 00:22:48;;;;;;;10.55;7.83;;;;;;;2.07;70.91;92643.70;1689772;83;21052;-56
2021/12/01 00:25:17;;;;;;;9.78;6.80;;;;;;;2.06;70.86;92647.62;1709434;83;21060;-56
2021/12/01 00:27:45;;;;;;;8.93;7.12;;;;;;;2.08;70.82;92654.13;1712571;83;21140;-55
2021/12/01 00:30:13;;;;;;;8.58;6.30;;;;;;;2.13;70.50;92647.38;1712088;83;20900;-56
2021/12/01 00:32:40;;;;;;;4.10;3.80;;;;;;;2.10;70.44;92628.67;1692483;83;20984;-59
2021/12/01 00:35:09;;;;;;;4.50;4.10;;;;;;;2.05;69.05;92637.97;1684735;83;21043;-56
2021/12/01 00:37:37;;;;;;;6.97;5.20;;;;;;;2.03;68.99;92649.87;1687184;83;21037;-56
2021/12/01 00:40:05;;;;;;;7.97;6.62;;;;;;;2.01;69.23;92653.63;1676324;83;21175;-55
2021/12/01 00:42:34;;;;;;;4.97;4.58;;;;;;;2.03;69.47;92651.22;1700749;83;20949;-55
2021/12/01 00:45:08;;;;;;;9.28;5.90;;;;;;;2.08;69.21;92653.34;1710361;83;21000;-56
2021/12/01 00:47:42;;;;;;;14.58;10.65;;;;;;;2.09;69.18;92661.64;1691939;83;21072;-56
2021/12/01 00:50:00;;;;;;;9.38;7.70;;;;;;;2.13;69.37;92659.58;1690288;83;20973;-55
2021/12/01 00:52:27;;;;;;;13.85;9.13;;;;;;;2.20;69.00;92662.01;1701368;83;22341;-56
2021/12/01 00:54:54;;;;;;;13.20;7.87;;;;;;;2.29;68.81;92664.16;1686255;83;21602;-56
2021/12/01 00:57:22;;;;;;;4.35;4.03;;;;;;;2.37;68.35;92672.79;1684883;83;21029;-56
2021/12/01 00:59:49;;;;;;;4.80;4.45;;;;;;;2.36;67.66;92660.44;1713121;83;21106;-56
2021/12/01 01:02:16;;;;;;;8.10;7.15;;;;;;;2.33;67.26;92664.04;1704506;83;21013;-56
2021/12/01 01:04:43;;;;;;;6.53;5.90;;;;;;;2.31;67.06;92656.95;1695789;83;21166;-56
2021/12/01 01:07:10;;;;;;;9.35;6.75;;;;;;;2.35;66.82;92652.88;1710030;83;21440;-58
2021/12/01 01:09:38;;;;;;;10.82;7.17;;;;;;;2.38;66.75;92650.66;1681907;83;21009;-56
2021/12/01 01:17:37;;;;;;;14.45;12.18;;;;;;;2.48;66.30;92654.16;1703997;84;22378;-56
2021/12/01 01:20:12;;;;;;;7.12;6.45;;;;;;;2.47;65.75;92651.30;1688920;83;21019;-55
2021/12/01 01:22:40;;;;;;;6.62;6.00;;;;;;;2.46;65.60;92641.62;1688173;83;21008;-57
2021/12/01 01:25:08;;;;;;;5.20;4.75;;;;;;;2.41;65.32;92643.56;1700702;83;21562;-56
2021/12/01 01:27:35;;;;;;;4.72;4.33;;;;;;;2.44;65.19;92642.67;1678053;83;21071;-54
2021/12/01 01:30:04;;;;;;;5.87;5.28;;;;;;;2.43;64.95;92641.16;1691957;83;21154;-56
2021/12/01 01:32:35;;;;;;;5.45;4.95;;;;;;;2.38;64.92;92636.33;1714292;83;21103;-55
2021/12/01 01:35:02;;;;;;;8.10;5.92;;;;;;;2.36;64.99;92638.73;1680720;83;21484;-58
2021/12/01 01:37:29;;;;;;;8.43;6.90;;;;;;;2.38;65.30;92637.69;1703716;83;21031;-55
2021/12/01 01:39:57;;;;;;;5.62;4.95;;;;;;;2.37;65.44;92645.66;1698904;83;21075;-55
2021/12/01 01:42:24;;;;;;;8.15;6.53;;;;;;;2.43;64.64;92652.02;1678507;83;21774;-55
2021/12/01 01:44:51;;;;;;;12.63;8.18;;;;;;;2.42;64.80;92651.86;1702017;83;21012;-55
2021/12/01 01:47:18;;;;;;;14.78;9.85;;;;;;;2.48;64.77;92658.23;1698987;83;21152;-56
2021/12/01 01:50:47;;;;;;;11.95;8.60;;;;;;;2.51;64.41;92666.83;1694506;83;20997;-59
2021/12/01 01:52:26;;;;;;;7.28;5.50;;;;;;;2.55;64.65;92670.93;1670753;84;20973;-55
2021/12/01 01:54:53;;;;;;;5.08;4.67;;;;;;;2.57;64.82;92664.45;1696068;83;21166;-55
2021/12/01 01:57:21;;;;;;;6.00;5.40;;;;;;;2.59;64.84;92668.06;1684258;83;21075;-55
2021/12/01 01:59:48;;;;;;;6.55;5.50;;;;;;;2.66;64.14;92665.09;1695392;83;21072;-56
2021/12/01 02:02:16;;;;;;;5.90;5.40;;;;;;;2.69;63.83;92673.69;1689040;83;21072;-57
2021/12/01 02:04:43;;;;;;;8.00;7.28;;;;;;;2.73;63.86;92668.25;1712233;83;21150;-56
2021/12/01 02:07:11;;;;;;;6.67;6.08;;;;;;;2.73;62.67;92678.37;1682565;83;21169;-54
2021/12/01 02:09:39;;;;;;;5.12;4.70;;;;;;;2.75;62.69;92678.67;1694498;84;21040;-57
2021/12/01 02:12:07;;;;;;;5.60;5.10;;;;;;;2.77;61.83;92677.63;1695610;83;21056;-56
2021/12/01 02:14:34;;;;;;;7.08;5.12;;;;;;;2.73;61.27;92676.39;1692396;83;21035;-55
2021/12/01 02:17:02;;;;;;;6.30;5.33;;;;;;;2.76;61.31;92674.75;1700972;83;20960;-56
2021/12/01 02:19:30;;;;;;;8.63;5.70;;;;;;;2.79;61.28;92685.48;1688611;83;22328;-56
2021/12/01 02:21:57;;;;;;;4.70;4.30;;;;;;;2.78;61.18;92676.41;1686048;83;21550;-56
2021/12/01 02:24:24;;;;;;;4.35;3.98;;;;;;;2.77;60.50;92673.55;1706753;83;21444;-57
2021/12/01 02:26:52;;;;;;;4.37;4.05;;;;;;;2.73;60.39;92683.18;1707186;83;21107;-56
2021/12/01 02:29:22;;;;;;;6.80;6.20;;;;;;;2.69;60.02;92678.50;1695307;83;20977;-56
2021/12/01 02:31:50;;;;;;;4.83;4.42;;;;;;;2.67;60.22;92685.59;1669027;83;21218;-57
2021/12/01 02:34:20;;;;;;;5.00;4.60;;;;;;;2.70;60.24;92695.55;1702184;83;21130;-57
2021/12/01 02:36:51;;;;;;;4.42;4.03;;;;;;;2.76;60.36;92703.25;1696652;83;21139;-56
2021/12/01 02:39:19;;;;;;;3.98;3.77;;;;;;;2.82;60.22;92699.52;1687058;83;21088;-55
2021/12/01 02:41:50;;;;;;;4.20;3.90;;;;;;;2.87;60.45;92699.53;1700728;83;21127;-56
2021/12/01 02:44:17;;;;;;;4.50;4.10;;;;;;;2.88;60.07;92701.05;1710412;83;21162;-57
2021/12/01 02:46:45;;;;;;;4.17;3.98;;;;;;;2.90;59.70;92702.70;1670221;83;20974;-55
2021/12/01 02:49:12;;;;;;;4.08;3.77;;;;;;;2.86;59.72;92702.09;1684960;83;20985;-56
2021/12/01 02:51:40;;;;;;;4.17;3.80;;;;;;;2.86;59.82;92706.17;1682896;83;21021;-56
2021/12/01 02:54:09;;;;;;;5.15;4.65;;;;;;;2.86;59.84;92707.53;1692289;83;21088;-56
2021/12/01 02:56:36;;;;;;;5.17;4.70;;;;;;;2.87;59.88;92708.42;1703913;83;21164;-55
2021/12/01 02:59:06;;;;;;;5.70;5.20;;;;;;;2.88;60.19;92715.98;1691091;83;21084;-55
2021/12/01 03:01:33;;;;;;;6.60;5.92;;;;;;;2.84;60.39;92717.46;1693465;83;20976;-55
2021/12/01 03:04:00;;;;;;;7.62;6.62;;;;;;;2.84;60.51;92727.58;1689783;83;21012;-55
2021/12/01 03:06:28;;;;;;;11.80;8.00;;;;;;;2.85;60.62;92723.05;1691517;83;20981;-57
2021/12/01 03:08:57;;;;;;;28.62;17.77;;;;;;;2.88;60.98;92720.05;1698423;83;21125;-56
2021/12/01 03:11:25;;;;;;;16.25;10.88;;;;;;;2.93;60.66;92724.88;1693055;83;21013;-55
2021/12/01 03:13:54;;;;;;;13.38;7.95;;;;;;;2.99;60.61;92731.23;1693640;83;22081;-55
2021/12/01 03:16:22;;;;;;;23.98;15.10;;;;;;;3.01;60.64;92739.69;1697269;83;21009;-55
2021/12/01 03:18:50;;;;;;;116.80;43.55;;;;;;;2.98;60.61;92743.30;1715276;83;21032;-54
2021/12/01 03:21:17;;;;;;;106.97;42.62;;;;;;;2.96;60.79;92742.99;1710533;83;21148;-55
2021/12/01 03:23:44;;;;;;;61.58;25.88;;;;;;;2.92;60.43;92747.81;1677737;83;21521;-55
2021/12/01 03:26:12;;;;;;;102.07;39.73;;;;;;;2.90;60.12;92767.25;1689960;83;21037;-54
2021/12/01 03:28:39;;;;;;;23.98;12.73;;;;;;;2.86;59.47;92764.54;1705333;83;20980;-55
2021/12/01 03:31:07;;;;;;;12.73;8.83;;;;;;;2.88;58.75;92769.66;1703866;83;21040;-55
2021/12/01 03:33:34;;;;;;;5.92;5.30;;;;;;;2.92;58.62;92782.52;1703389;83;21828;-56
2021/12/01 03:36:01;;;;;;;7.15;6.22;;;;;;;2.97;58.52;92771.66;1700364;83;20993;-55
2021/12/01 03:38:29;;;;;;;8.05;6.55;;;;;;;2.97;58.55;92766.23;1672530;83;21193;-55
2021/12/01 03:40:56;;;;;;;118.37;50.90;;;;;;;2.98;58.82;92774.53;1680903;83;21055;-56
2021/12/01 03:43:24;;;;;;;12.23;8.48;;;;;;;2.99;58.68;92776.04;1709519;83;21034;-56
2021/12/01 03:45:52;;;;;;;11.93;7.62;;;;;;;2.98;57.97;92782.67;1694494;83;21059;-55
2021/12/01 03:48:20;;;;;;;10.05;6.70;;;;;;;2.94;57.61;92778.76;1689035;83;21025;-58
2021/12/01 03:50:51;;;;;;;27.90;15.70;;;;;;;2.91;57.65;92782.34;1700606;83;21112;-57
2021/12/01 03:53:21;;;;;;;9.70;7.25;;;;;;;2.90;57.70;92784.16;1688101;83;20980;-56
2021/12/01 03:55:48;;;;;;;10.55;7.53;;;;;;;2.90;57.89;92788.23;1688790;83;21000;-59
2021/12/01 03:58:15;;;;;;;7.60;6.70;;;;;;;2.89;58.06;92801.03;1708256;83;21162;-55
2021/12/01 04:00:44;;;;;;;11.68;7.75;;;;;;;2.88;58.03;92806.93;1712965;83;20985;-55
2021/12/01 04:03:12;;;;;;;33.28;19.82;;;;;;;2.86;58.15;92812.05;1712719;83;21020;-54
2021/12/01 04:05:41;;;;;;;45.05;26.45;;;;;;;2.86;58.20;92807.36;1695826;83;20971;-55
2021/12/01 04:08:08;;;;;;;25.90;15.85;;;;;;;2.85;58.29;92822.75;1680993;83;21028;-55
2021/12/01 04:10:36;;;;;;;21.05;12.28;;;;;;;2.90;58.24;92827.60;1696374;83;21158;-55
2021/12/01 04:13:03;;;;;;;24.55;14.93;;;;;;;2.90;58.30;92831.05;1682263;83;20969;-55
2021/12/01 04:15:30;;;;;;;15.50;12.37;;;;;;;2.90;58.09;92823.53;1684516;83;21216;-55
2021/12/01 04:17:58;;;;;;;6.87;6.17;;;;;;;2.91;58.18;92828.50;1654990;85;21088;-55
2021/12/01 04:20:25;;;;;;;6.78;6.08;;;;;;;2.93;58.67;92830.78;1678270;83;20969;-56
2021/12/01 04:22:53;;;;;;;6.50;5.80;;;;;;;2.94;58.73;92830.94;1692447;83;21139;-54
2021/12/01 04:25:21;;;;;;;5.58;5.08;;;;;;;3.01;58.77;92832.78;1680746;83;21066;-55
2021/12/01 04:27:48;;;;;;;5.47;5.00;;;;;;;3.05;58.68;92832.66;1706058;83;20993;-56
2021/12/01 04:30:19;;;;;;;9.05;7.50;;;;;;;3.03;58.76;92836.42;1698777;83;21082;-55
2021/12/01 04:32:46;;;;;;;13.03;10.13;;;;;;;3.04;58.74;92836.58;1696537;83;20981;-55
2021/12/01 04:35:16;;;;;;;10.35;7.70;;;;;;;3.10;58.90;92847.01;1695452;83;21155;-56
2021/12/01 04:37:43;;;;;;;10.58;8.03;;;;;;;3.15;58.53;92838.27;1697981;83;21039;-55
2021/12/01 04:40:12;;;;;;;11.05;8.43;;;;;;;3.21;58.48;92842.69;1697526;83;20980;-56
2021/12/01 04:42:39;;;;;;;11.00;9.05;;;;;;;3.23;58.44;92843.61;1678297;84;21107;-56
2021/12/01 04:45:14;;;;;;;13.38;11.90;;;;;;;3.20;58.58;92843.89;1677461;83;21059;-55
2021/12/01 04:47:41;;;;;;;23.57;15.00;;;;;;;3.24;58.80;92843.14;1699158;83;21800;-55
2021/12/01 04:50:07;;;;;;;19.70;13.72;;;;;;;3.33;58.50;92836.41;1696068;83;21074;-56
2021/12/01 04:52:35;;;;;;;45.88;26.33;;;;;;;3.35;58.82;92856.32;1711113;83;21036;-56
2021/12/01 04:55:04;;;;;;;54.30;37.33;;;;;;;3.32;58.91;92850.42;1695472;83;21143;-56
2021/12/01 04:57:31;;;;;;;50.48;28.98;;;;;;;3.35;58.81;92859.03;1701468;83;21142;-55
2021/12/01 04:59:59;;;;;;;20.02;15.05;;;;;;;3.43;58.67;92856.22;1698753;83;21526;-55
2021/12/01 05:02:26;;;;;;;17.73;13.32;;;;;;;3.51;58.40;92864.39;1689479;83;21083;-56
2021/12/01 05:04:54;;;;;;;19.20;13.80;;;;;;;3.52;58.38;92863.18;1699738;83;21088;-57
2021/12/01 05:07:21;;;;;;;25.45;16.00;;;;;;;3.50;58.48;92871.03;1687005;83;21567;-57
2021/12/01 05:09:48;;;;;;;38.67;23.18;;;;;;;3.55;58.49;92876.48;1717120;83;21012;-57
2021/12/01 05:12:16;;;;;;;33.60;18.82;;;;;;;3.58;58.33;92876.36;1687551;83;21180;-56
2021/12/01 05:14:44;;;;;;;24.80;15.38;;;;;;;3.62;58.64;92883.00;1684901;83;21025;-56
2021/12/01 05:17:11;;;;;;;31.30;16.90;;;;;;;3.67;59.01;92884.53;1708171;83;21024;-57
2021/12/01 05:19:38;;;;;;;23.85;14.73;;;;;;;3.62;59.09;92891.16;1692453;83;21031;-60
2021/12/01 05:22:05;;;;;;;30.43;21.85;;;;;;;3.59;58.91;92905.05;1687869;83;20965;-56
2021/12/01 05:24:33;;;;;;;14.38;11.55;;;;;;;3.56;58.89;92907.31;1703790;83;21826;-58
2021/12/01 05:27:00;;;;;;;13.13;8.80;;;;;;;3.57;57.90;92905.34;1686072;83;20996;-61
2021/12/01 05:29:27;;;;;;;13.22;11.85;;;;;;;3.58;57.49;92915.00;1692799;83;21007;-61
2021/12/01 05:31:56;;;;;;;7.25;6.55;;;;;;;3.58;57.15;92917.13;1694493;83;21436;-56
2021/12/01 05:34:24;;;;;;;10.00;8.55;;;;;;;3.57;56.37;92922.41;1696677;83;21020;-55
2021/12/01 05:36:51;;;;;;;8.93;8.03;;;;;;;3.52;56.54;92929.77;1711735;83;21804;-55
2021/12/01 05:39:19;;;;;;;14.60;10.43;;;;;;;3.48;56.67;92937.31;1688260;83;20976;-59
2021/12/01 05:41:46;;;;;;;13.43;9.45;;;;;;;3.49;56.81;92940.80;1712944;83;21048;-55
2021/12/01 05:44:13;;;;;;;9.60;8.20;;;;;;;3.54;56.84;92940.21;1689775;83;20985;-55
2021/12/01 05:46:40;;;;;;;10.75;7.65;;;;;;;3.52;56.82;92956.20;1687607;83;21064;-55
2021/12/01 05:49:07;;;;;;;8.73;7.45;;;;;;;3.51;56.86;92954.70;1689748;83;21994;-55
2021/12/01 05:51:35;;;;;;;9.43;8.28;;;;;;;3.49;56.81;92957.84;1694139;83;20978;-56
2021/12/01 05:54:03;;;;;;;9.93;8.93;;;;;;;3.50;57.10;92955.90;1691132;83;20977;-57
2021/12/01 05:56:30;;;;;;;9.95;8.93;;;;;;;3.52;57.03;92958.92;1699539;83;21151;-57
2021/12/01 05:58:58;;;;;;;11.18;8.88;;;;;;;3.52;56.99;92963.75;1676383;83;21574;-57
2021/12/01 06:01:25;;;;;;;84.52;36.38;;;;;;;3.51;56.88;92969.03;1679542;83;21217;-57
2021/12/01 06:03:52;;;;;;;47.05;23.05;;;;;;;3.54;57.20;92974.92;1707073;83;20976;-57
2021/12/01 06:06:19;;;;;;;20.37;13.70;;;;;;;3.60;57.38;92985.40;1682130;83;21566;-57
2021/12/01 06:08:47;;;;;;;15.43;12.10;;;;;;;3.62;57.17;92991.14;1667032;85;21097;-56
2021/12/01 06:11:15;;;;;;;11.57;8.15;;;;;;;3.66;56.76;92979.53;1683292;83;20983;-58
2021/12/01 06:13:44;;;;;;;10.90;7.62;;;;;;;3.73;56.64;92984.69;1712827;83;21152;-58
2021/12/01 06:16:11;;;;;;;6.87;5.87;;;;;;;3.77;56.21;92989.41;1673267;83;21006;-58
2021/12/01 06:18:38;;;;;;;7.53;6.67;;;;;;;3.77;55.90;92994.85;1708404;83;20999;-57
2021/12/01 06:21:06;;;;;;;8.05;7.25;;;;;;;3.77;55.99;92993.49;1679630;83;21077;-59
2021/12/01 06:23:33;;;;;;;229.15;81.60;;;;;;;3.80;56.10;92991.23;1689871;83;21469;-58
2021/12/01 06:26:01;;;;;;;283.47;100.12;;;;;;;3.87;56.34;92988.23;1690590;83;21278;-58
2021/12/01 06:28:28;;;;;;;290.55;110.32;;;;;;;3.90;56.59;92998.22;1682625;83;21030;-61
2021/12/01 06:30:56;;;;;;;253.07;98.97;;;;;;;4.00;56.69;93012.02;1660016;84;21574;-60
2021/12/01 06:33:23;;;;;;;160.63;66.37;;;;;;;4.13;56.68;93022.20;1646295;84;21172;-56
2021/12/01 06:35:52;;;;;;;183.37;86.10;;;;;;;4.25;56.68;93006.98;1682676;83;21122;-60
2021/12/01 06:38:20;;;;;;;79.80;43.55;;;;;;;4.30;56.45;93001.71;1725134;82;20923;-63
2021/12/01 06:40:48;;;;;;;80.42;45.90;;;;;;;4.33;56.29;93011.69;1730839;82;21442;-57
2021/12/01 06:43:15;;;;;;;78.52;44.38;;;;;;;4.37;56.32;93019.11;1698983;82;21468;-62
2021/12/01 06:45:42;;;;;;;38.30;25.15;;;;;;;4.44;56.29;93017.45;1697713;83;21098;-57
2021/12/01 06:48:10;;;;;;;46.85;30.62;;;;;;;4.50;55.81;93023.84;1692122;83;21059;-71
2021/12/01 06:50:38;;;;;;;115.22;57.25;;;;;;;4.53;56.01;93030.33;1681557;83;21113;-64
2021/12/01 06:53:06;;;;;;;102.42;64.07;;;;;;;4.51;55.87;93038.97;1694907;83;21141;-60
2021/12/01 06:55:33;;;;;;;31.35;20.72;;;;;;;4.56;55.62;93047.90;1710158;83;21138;-58
2021/12/01 06:58:01;;;;;;;20.48;14.43;;;;;;;4.54;55.74;93046.23;1691190;83;21040;-58
2021/12/01 07:00:28;;;;;;;21.17;14.33;;;;;;;4.52;55.61;93051.37;1703948;82;21111;-60
2021/12/01 07:02:55;;;;;;;30.00;18.98;;;;;;;4.50;55.56;93053.02;1702041;82;21049;-58
2021/12/01 07:05:22;;;;;;;48.05;32.58;;;;;;;4.53;55.42;93061.05;1690185;82;21062;-64
2021/12/01 07:07:49;;;;;;;30.20;17.42;;;;;;;4.48;55.66;93064.96;1703575;82;21059;-63
2021/12/01 07:10:17;;;;;;;35.55;21.73;;;;;;;4.49;55.56;93069.97;1659261;82;21105;-64
2021/12/01 07:12:46;;;;;;;49.63;29.87;;;;;;;4.56;55.76;93066.95;1684264;83;21059;-60
2021/12/01 07:15:13;;;;;;;51.65;35.90;;;;;;;4.63;55.79;93084.36;1694955;82;21451;-62
2021/12/01 07:17:41;;;;;;;23.87;15.00;;;;;;;4.72;55.38;93072.73;1687647;83;20989;-65
2021/12/01 07:20:09;;;;;;;35.43;20.60;;;;;;;4.81;54.85;93083.67;1673932;82;21010;-65
2021/12/01 07:22:37;;;;;;;42.70;25.95;;;;;;;4.84;55.04;93084.90;1674865;83;21468;-66
2021/12/01 07:25:04;;;;;;;75.30;47.80;;;;;;;4.85;54.61;93091.86;1666080;83;21065;-65
2021/12/01 07:27:31;;;;;;;31.97;21.50;;;;;;;4.85;54.06;93090.50;1681758;82;21154;-61
2021/12/01 07:30:01;;;;;;;17.55;11.30;;;;;;;4.87;53.38;93092.16;1688223;83;21109;-60
2021/12/01 07:32:29;;;;;;;40.75;21.75;;;;;;;4.81;53.06;93098.03;1690130;82;21105;-68
2021/12/01 07:34:58;;;;;;;19.75;14.18;;;;;;;4.75;53.49;93098.48;1680749;82;21050;-65
2021/12/01 07:37:25;;;;;;;22.90;17.70;;;;;;;4.76;52.91;93106.80;1677864;83;21455;-68
2021/12/01 07:39:52;;;;;;;15.38;12.00;;;;;;;4.74;53.18;93106.50;1683403;82;21187;-60
2021/12/01 07:42:19;;;;;;;8.38;6.28;;;;;;;4.75;53.26;93099.84;1680478;83;21082;-62
2021/12/01 07:44:46;;;;;;;6.12;5.53;;;;;;;4.75;52.95;93113.45;1671442;82;21070;-75
2021/12/01 07:47:13;;;;;;;12.05;7.30;;;;;;;4.77;52.73;93108.31;1670447;83;20988;-64
2021/12/01 07:49:41;;;;;;;22.37;13.60;;;;;;;4.68;52.74;93117.84;1685737;83;22242;-62
2021/12/01 07:52:09;;;;;;;33.23;19.10;;;;;;;4.61;53.05;93120.08;1677541;83;21092;-65
2021/12/01 09:21:51;;;;;;;10.60;8.48;;;;;;;4.90;48.63;93213.08;1679263;83;22377;-74
2021/12/01 09:24:21;;;;;;;9.25;8.18;;;;;;;4.91;48.78;93226.27;1638227;83;21814;-69
2021/12/01 09:26:48;;;;;;;18.85;15.53;;;;;;;4.95;48.50;93228.86;1682901;83;21500;-65
2021/12/01 09:29:15;;;;;;;16.20;12.15;;;;;;;4.99;48.62;93237.03;1683337;83;21035;-67
2021/12/01 09:31:42;;;;;;;10.90;7.03;;;;;;;5.02;49.00;93244.34;1679859;83;21110;-73
2021/12/01 09:34:09;;;;;;;28.25;7.97;;;;;;;4.99;49.35;93247.93;1687897;83;21148;-72
2021/12/01 09:36:37;;;;;;;12.37;7.45;;;;;;;4.91;50.58;93248.06;1690616;83;21133;-74
2021/12/01 09:39:04;;;;;;;12.68;7.60;;;;;;;4.82;51.45;93261.63;1660311;83;21068;-76
2021/12/01 09:41:34;;;;;;;11.68;9.15;;;;;;;4.74;52.12;93256.30;1660289;83;22011;-70
2021/12/01 09:44:08;;;;;;;9.65;6.40;;;;;;;4.73;52.71;93252.64;1686191;82;21058;-69
2021/12/01 09:46:49;;;;;;;17.05;7.50;;;;;;;4.77;53.27;93264.19;1661372;83;21024;-70
2021/12/01 09:49:23;;;;;;;11.60;8.30;;;;;;;4.82;53.37;93256.80;1658311;83;22576;-74
2021/12/01 09:52:01;;;;;;;16.67;12.25;;;;;;;4.88;53.57;93255.77;1685368;82;20989;-69
2021/12/01 09:54:36;;;;;;;10.20;6.33;;;;;;;4.94;53.40;93267.59;1688585;83;21048;-69
2021/12/01 09:57:15;;;;;;;16.30;7.90;;;;;;;4.99;52.92;93266.27;1665757;83;21093;-76
2021/12/01 09:59:58;;;;;;;6.85;5.20;;;;;;;4.97;53.21;93272.14;1661207;83;21529;-63
2021/12/01 10:02:35;;;;;;;13.08;8.10;;;;;;;4.95;53.00;93270.48;1665893;83;21148;-68
2021/12/01 10:05:06;;;;;;;8.18;6.60;;;;;;;5.00;52.95;93281.41;1680841;83;21003;-64
2021/12/01 10:07:46;;;;;;;6.75;6.05;;;;;;;5.07;52.79;93279.17;1666095;83;20998;-64
2021/12/01 10:10:23;;;;;;;16.57;6.72;;;;;;;5.11;52.91;93298.87;1682518;83;21373;-70
2021/12/01 10:13:02;;;;;;;8.43;4.50;;;;;;;5.15;52.60;93289.95;1676169;83;21051;-63
2021/12/01 10:15:33;;;;;;;8.38;4.90;;;;;;;5.20;52.00;93292.11;1680404;83;21650;-73
2021/12/01 10:18:14;;;;;;;5.70;4.87;;;;;;;5.21;52.23;93284.09;1691167;83;21442;-70
2021/12/01 10:21:10;;;;;;;8.33;4.47;;;;;;;5.24;51.36;93280.45;1683074;82;21025;-70
2021/12/01 10:30:21;;;;;;;21.80;10.60;;;;;;;5.19;52.06;93294.65;1688518;82;21072;-62
2021/12/01 10:33:13;;;;;;;19.27;12.37;;;;;;;5.07;52.67;93305.06;1652451;84;21138;-61
2021/12/01 10:35:46;;;;;;;14.87;9.35;;;;;;;5.10;52.95;93293.26;1681510;83;21184;-60
2021/12/01 10:38:25;;;;;;;10.60;7.87;;;;;;;5.19;53.46;93299.36;1688725;83;21196;-59
2021/12/01 10:41:13;;;;;;;13.00;6.92;;;;;;;5.33;53.09;93297.61;1709790;82;21513;-60
2021/12/01 10:43:53;;;;;;;20.27;10.45;;;;;;;5.37;52.61;93300.17;1667792;83;21276;-62
2021/12/01 10:49:06;;;;;;;14.65;9.18;;;;;;;5.47;52.28;93303.11;1658591;82;21124;-61
2021/12/01 10:51:43;;;;;;;10.98;6.47;;;;;;;5.60;52.24;93311.33;1698951;83;21031;-60
2021/12/01 10:54:20;;;;;;;35.50;10.15;;;;;;;5.76;52.08;93312.44;1700134;83;21039;-62
2021/12/01 10:57:24;;;;;;;10.00;5.78;;;;;;;5.81;51.80;93302.94;1678388;83;21055;-60
2021/12/01 11:00:11;;;;;;;7.05;4.95;;;;;;;5.76;51.72;93304.25;1684653;82;21013;-62
2021/12/01 11:02:55;;;;;;;13.98;7.12;;;;;;;5.81;51.54;93305.67;1703846;82;21558;-66
2021/12/01 11:05:30;;;;;;;17.00;7.83;;;;;;;5.83;51.46;93293.08;1702741;82;21125;-60
2021/12/01 11:08:30;;;;;;;11.30;6.60;;;;;;;5.81;51.44;93290.66;1680176;82;21126;-62
2021/12/01 11:11:16;;;;;;;10.25;6.60;;;;;;;5.73;50.89;93289.38;1674182;84;21130;-59
2021/12/01 11:13:51;;;;;;;6.90;5.17;;;;;;;5.64;50.92;93297.56;1677781;83;21084;-58
2021/12/01 11:16:26;;;;;;;7.25;5.25;;;;;;;5.57;50.68;93291.03;1670348;84;21038;-67
2021/12/01 11:18:58;;;;;;;9.63;5.80;;;;;;;5.53;50.51;93284.34;1616473;83;20998;-65
2021/12/01 11:21:34;;;;;;;6.80;5.10;;;;;;;5.59;50.41;93300.88;1661881;84;21117;-63
2021/12/01 11:24:09;;;;;;;8.80;5.67;;;;;;;5.66;50.16;93282.27;1693743;83;21201;-64
2021/12/01 11:27:01;;;;;;;8.05;6.10;;;;;;;5.74;49.87;93271.80;1706087;82;21070;-67
2021/12/01 11:29:39;;;;;;;5.90;5.30;;;;;;;5.79;49.21;93275.35;1674316;83;22284;-60
2021/12/01 11:35:10;;;;;;;6.28;4.65;;;;;;;5.73;49.52;93279.25;1679017;83;21071;-65
2021/12/01 11:37:58;;;;;;;4.80;4.28;;;;;;;5.69;49.45;93279.23;1684481;83;21047;-61
2021/12/01 11:40:36;;;;;;;9.68;4.40;;;;;;;5.61;49.96;93271.93;1684357;83;21526;-60
2021/12/01 11:43:16;;;;;;;5.00;4.20;;;;;;;5.62;50.02;93279.52;1676980;84;21019;-69
2021/12/01 11:46:14;;;;;;;4.50;4.10;;;;;;;5.61;49.93;93285.57;1696886;84;21062;-60
2021/12/01 11:48:54;;;;;;;6.22;4.28;;;;;;;5.58;49.79;93278.91;1685882;83;20991;-61
2021/12/01 11:51:44;;;;;;;4.20;3.90;;;;;;;5.57;50.04;93282.23;1680888;83;21153;-67
2021/12/01 11:54:27;;;;;;;4.75;4.25;;;;;;;5.47;50.23;93279.93;1682298;84;21023;-64
2021/12/01 11:57:06;;;;;;;6.20;5.05;;;;;;;5.30;50.25;93292.29;1692616;83;21047;-68
2021/12/01 11:59:47;;;;;;;11.57;5.83;;;;;;;5.22;50.81;93290.28;1707100;83;21487;-57
2021/12/01 12:02:23;;;;;;;15.32;8.25;;;;;;;5.28;51.27;93279.71;1679252;83;21904;-68
2021/12/01 12:04:54;;;;;;;6.55;5.87;;;;;;;5.33;51.36;93285.93;1684387;83;21793;-63
2021/12/01 12:07:34;;;;;;;9.38;6.37;;;;;;;5.38;50.99;93288.09;1670932;83;21193;-57
2021/12/01 12:10:16;;;;;;;9.15;6.12;;;;;;;5.42;50.65;93292.80;1683018;81;21083;-60
2021/12/01 12:13:04;;;;;;;9.05;6.15;;;;;;;5.44;51.03;93289.75;1655259;83;21061;-63
2021/12/01 12:15:47;;;;;;;14.38;8.20;;;;;;;5.80;50.93;93280.34;1643457;85;21055;-60
2021/12/01 12:18:49;;;;;;;14.50;7.10;;;;;;;6.59;49.46;93277.95;1658409;83;21059;-71
2021/12/01 12:21:27;;;;;;;11.00;6.42;;;;;;;7.31;48.08;93281.30;1693416;83;21074;-60
2021/12/01 12:23:51;;;;;;;24.15;12.82;;;;;;;7.91;45.82;93280.55;1673781;83;21075;-60
2021/12/01 12:26:51;;;;;;;16.37;6.33;;;;;;;8.35;44.86;93280.90;1682991;82;21059;-67
2021/12/01 12:29:25;;;;;;;13.35;6.03;;;;;;;8.84;43.30;93271.48;1667457;83;21531;-66
2021/12/01 12:32:10;;;;;;;5.33;3.98;;;;;;;9.08;42.86;93281.78;1679003;83;21636;-60
2021/12/01 12:35:03;;;;;;;8.05;4.10;;;;;;;9.47;41.75;93294.16;1628162;86;21130;-65
2021/12/01 12:37:35;;;;;;;9.90;6.33;;;;;;;9.89;40.23;93267.09;1617888;83;21797;-62
2021/12/01 12:40:11;;;;;;;11.70;6.95;;;;;;;10.19;39.27;93285.03;1700723;82;21240;-62
2021/12/01 12:43:17;;;;;;;8.08;6.30;;;;;;;10.18;38.64;93285.63;1681427;83;21002;-64
2021/12/01 12:46:11;;;;;;;8.00;5.45;;;;;;;10.08;39.04;93295.85;1679592;83;21174;-67
2021/12/01 12:48:52;;;;;;;8.30;5.10;;;;;;;10.16;39.45;93286.73;1689780;82;21077;-64
2021/12/01 12:51:30;;;;;;;13.35;4.97;;;;;;;10.21;38.34;93288.05;1682147;83;21544;-62
2021/12/01 12:54:08;;;;;;;6.55;5.45;;;;;;;9.64;39.46;93293.17;1679924;83;21095;-62
2021/12/01 12:56:51;;;;;;;6.83;4.25;;;;;;;8.77;41.20;93308.87;1678823;83;21048;-65
2021/12/01 12:59:40;;;;;;;5.85;4.22;;;;;;;8.05;43.11;93301.15;1666436;83;21458;-61
2021/12/01 13:02:16;;;;;;;6.75;5.08;;;;;;;7.43;44.92;93300.25;1677074;83;21015;-62
2021/12/01 13:04:54;;;;;;;7.67;5.80;;;;;;;6.70;46.90;93293.29;1675943;83;21527;-66
2021/12/01 13:07:44;;;;;;;14.03;11.90;;;;;;;6.33;47.95;93293.16;1704911;82;21046;-66
2021/12/01 13:10:39;;;;;;;13.65;10.13;;;;;;;6.01;48.51;93289.62;1686981;83;21176;-66
2021/12/01 13:13:20;;;;;;;9.87;5.97;;;;;;;5.78;49.38;93287.45;1680802;82;21972;-64
2021/12/01 13:16:00;;;;;;;8.45;4.70;;;;;;;5.86;49.57;93283.23;1679831;82;21128;-65
2021/12/01 13:18:34;;;;;;;10.38;6.55;;;;;;;6.21;48.85;93281.77;1638725;83;21515;-63
2021/12/01 13:21:14;;;;;;;8.33;7.25;;;;;;;6.19;48.92;93273.27;1685091;82;21505;-67
2021/12/01 13:23:56;;;;;;;9.40;8.43;;;;;;;5.84;49.04;93274.16;1664873;82;21619;-62
2021/12/01 13:26:35;;;;;;;14.20;8.58;;;;;;;5.44;49.65;93261.74;1683225;82;22168;-68
2021/12/01 13:29:39;;;;;;;;;;;;;;;;;;;;;
2021/12/01 13:31:57;;;;;;;21.17;13.85;;;;;;;4.91;51.15;93268.49;1682091;82;21094;-71
2021/12/01 13:34:34;;;;;;;14.68;9.60;;;;;;;4.71;51.87;93270.80;1665196;84;21074;-60
2021/12/01 13:37:06;;;;;;;28.40;12.50;;;;;;;4.61;52.14;93271.20;1639028;85;21063;-64
2021/12/01 13:39:39;;;;;;;29.92;25.95;;;;;;;4.52;52.45;93262.38;1706755;82;21557;-62
2021/12/01 13:42:21;;;;;;;;;;;;;;;4.47;52.81;93271.70;1678740;83;21156;-65